createdAt,value
2022-11-07T00:01:49.980Z,10.90
2022-11-07T00:04:17.838Z,10.90
2022-11-07T00:06:45.129Z,10.90
2022-11-07T00:09:12.791Z,10.90
2022-11-07T00:11:40.209Z,10.90
2022-11-07T00:14:07.636Z,10.90
2022-11-07T00:16:34.926Z,10.80
2022-11-07T00:19:02.343Z,11.80
2022-11-07T00:21:29.769Z,11.50
2022-11-07T00:23:57.056Z,10.80
2022-11-07T00:26:24.500Z,10.70
2022-11-07T00:28:51.900Z,10.80
2022-11-07T00:31:20.005Z,10.90
2022-11-07T00:33:47.600Z,10.90
2022-11-07T00:36:26.276Z,10.90
2022-11-07T00:38:56.275Z,10.90
2022-11-07T00:41:24.212Z,10.90
2022-11-07T00:43:51.865Z,10.90
2022-11-07T00:46:19.857Z,10.90
2022-11-07T00:48:47.953Z,10.90
2022-11-07T00:51:23.727Z,10.90
2022-11-07T00:53:52.174Z,10.90
2022-11-07T00:56:23.884Z,10.90
2022-11-07T00:58:58.783Z,10.90
2022-11-07T01:01:30.543Z,11.00
2022-11-07T01:04:17.424Z,10.90
2022-11-07T01:06:49.262Z,11.00
2022-11-07T01:09:19.763Z,11.00
2022-11-07T01:11:48.068Z,11.00
2022-11-07T01:14:18.458Z,11.00
2022-11-07T01:16:45.882Z,11.00
2022-11-07T01:19:13.439Z,11.10
2022-11-07T01:21:41.868Z,11.10
2022-11-07T01:24:11.023Z,11.00
2022-11-07T01:26:40.295Z,11.10
2022-11-07T01:29:08.572Z,11.20
2022-11-07T01:31:37.789Z,11.00
2022-11-07T01:34:07.979Z,11.10
2022-11-07T01:36:35.540Z,11.10
2022-11-07T01:39:04.140Z,11.10
2022-11-07T01:41:34.565Z,11.10
2022-11-07T01:44:07.843Z,11.20
2022-11-07T01:46:37.930Z,11.20
2022-11-07T01:49:20.838Z,11.20
2022-11-07T01:52:10.108Z,11.30
2022-11-07T01:55:00.612Z,11.30
2022-11-07T01:57:34.636Z,11.30
2022-11-07T02:00:07.167Z,11.30
2022-11-07T02:02:36.585Z,11.30
2022-11-07T02:05:08.938Z,11.30
2022-11-07T02:07:38.375Z,11.30
2022-11-07T02:10:06.622Z,11.60
2022-11-07T02:12:34.569Z,11.30
2022-11-07T02:15:02.189Z,11.90
2022-11-07T02:17:29.795Z,11.10
2022-11-07T02:19:57.446Z,11.30
2022-11-07T02:22:27.841Z,11.30
2022-11-07T02:24:58.926Z,11.20
2022-11-07T02:27:31.592Z,11.20
2022-11-07T02:30:02.974Z,11.20
2022-11-07T02:32:30.682Z,11.40
2022-11-07T02:35:00.489Z,11.30
2022-11-07T02:37:32.809Z,11.20
2022-11-07T02:40:03.361Z,11.50
2022-11-07T02:42:43.661Z,11.30
2022-11-07T02:45:21.877Z,11.30
2022-11-07T02:47:49.755Z,11.40
2022-11-07T02:50:17.044Z,11.30
2022-11-07T02:52:44.518Z,11.30
2022-11-07T02:55:13.785Z,11.40
2022-11-07T02:57:41.701Z,11.40
2022-11-07T03:00:11.877Z,11.40
2022-11-07T03:02:39.571Z,11.40
2022-11-07T03:05:07.752Z,11.40
2022-11-07T03:07:35.039Z,11.40
2022-11-07T03:10:02.482Z,11.40
2022-11-07T03:12:29.784Z,11.40
2022-11-07T03:14:57.122Z,11.40
2022-11-07T03:17:24.435Z,12.10
2022-11-07T03:19:51.924Z,11.40
2022-11-07T03:22:19.360Z,11.40
2022-11-07T03:24:46.662Z,11.50
2022-11-07T03:27:15.645Z,11.50
2022-11-07T03:29:42.989Z,11.40
2022-11-07T03:32:10.653Z,11.40
2022-11-07T03:34:38.539Z,11.40
2022-11-07T03:37:09.602Z,11.50
2022-11-07T03:39:38.593Z,11.40
2022-11-07T03:42:06.013Z,11.40
2022-11-07T03:44:33.456Z,11.40
2022-11-07T03:47:00.760Z,11.50
2022-11-07T03:49:28.005Z,11.50
2022-11-07T03:51:56.304Z,11.50
2022-11-07T03:54:23.569Z,11.50
2022-11-07T03:56:50.984Z,11.50
2022-11-07T03:59:19.435Z,11.50
2022-11-07T04:01:46.954Z,11.50
2022-11-07T04:04:14.669Z,11.50
2022-11-07T04:06:41.974Z,11.50
2022-11-07T04:09:09.594Z,11.50
2022-11-07T04:11:55.391Z,11.50
2022-11-07T04:14:41.409Z,11.50
2022-11-07T04:17:21.911Z,11.50
2022-11-07T04:19:58.100Z,11.60
2022-11-07T04:22:26.387Z,11.50
2022-11-07T04:24:53.772Z,11.50
2022-11-07T04:27:39.881Z,11.50
2022-11-07T04:30:28.460Z,11.60
2022-11-07T04:32:58.326Z,11.50
2022-11-07T04:35:29.399Z,11.60
2022-11-07T04:37:56.948Z,11.60
2022-11-07T04:40:24.207Z,11.60
2022-11-07T04:42:52.041Z,11.60
2022-11-07T04:45:19.335Z,11.60
2022-11-07T04:47:47.430Z,11.50
2022-11-07T04:50:17.954Z,11.70
2022-11-07T04:52:46.717Z,11.70
2022-11-07T04:55:26.237Z,11.70
2022-11-07T04:57:53.757Z,11.70
2022-11-07T05:00:22.655Z,11.70
2022-11-07T05:02:50.889Z,11.80
2022-11-07T05:05:20.126Z,11.80
2022-11-07T05:07:48.604Z,11.80
2022-11-07T05:10:22.658Z,11.80
2022-11-07T05:12:50.072Z,11.80
2022-11-07T05:15:18.549Z,11.80
2022-11-07T05:17:46.545Z,11.80
2022-11-07T05:20:31.387Z,11.90
2022-11-07T05:23:19.053Z,11.80
2022-11-07T05:25:54.446Z,11.80
2022-11-07T05:28:35.289Z,11.90
2022-11-07T05:31:08.093Z,11.90
2022-11-07T05:33:35.924Z,11.90
2022-11-07T05:36:14.317Z,11.90
2022-11-07T05:38:45.245Z,11.90
2022-11-07T05:41:14.010Z,11.90
2022-11-07T05:43:41.439Z,11.90
2022-11-07T05:46:10.339Z,11.90
2022-11-07T05:48:38.378Z,12.00
2022-11-07T05:51:07.288Z,12.00
2022-11-07T05:53:35.027Z,11.90
2022-11-07T05:56:03.901Z,11.90
2022-11-07T05:58:31.409Z,12.00
2022-11-07T06:01:04.174Z,12.00
2022-11-07T06:03:33.573Z,12.00
2022-11-07T06:06:01.130Z,12.00
2022-11-07T06:08:28.425Z,12.00
2022-11-07T06:10:55.691Z,11.90
2022-11-07T06:13:23.272Z,11.90
2022-11-07T06:15:50.506Z,11.90
2022-11-07T06:18:20.389Z,11.90
2022-11-07T06:20:47.880Z,11.90
2022-11-07T06:23:15.751Z,11.90
2022-11-07T06:25:43.620Z,11.80
2022-11-07T06:28:14.981Z,11.90
2022-11-07T06:30:42.624Z,11.90
2022-11-07T06:33:16.499Z,11.80
2022-11-07T06:35:45.049Z,11.90
2022-11-07T06:38:14.225Z,11.80
2022-11-07T06:40:42.844Z,11.80
2022-11-07T06:43:18.891Z,11.90
2022-11-07T06:45:49.185Z,11.80
2022-11-07T06:48:16.614Z,11.80
2022-11-07T06:50:44.061Z,11.80
2022-11-07T06:53:13.446Z,11.90
2022-11-07T06:55:45.993Z,11.80
2022-11-07T06:58:13.756Z,11.80
2022-11-07T07:00:42.235Z,11.80
2022-11-07T07:03:11.117Z,11.80
2022-11-07T07:05:38.844Z,11.80
2022-11-07T07:08:07.747Z,11.90
2022-11-07T07:10:39.434Z,11.90
2022-11-07T07:13:06.776Z,11.90
2022-11-07T07:15:49.420Z,11.90
2022-11-07T07:18:19.527Z,12.30
2022-11-07T07:20:48.572Z,11.90
2022-11-07T07:23:17.607Z,11.90
2022-11-07T07:25:45.643Z,11.90
2022-11-07T07:28:13.266Z,12.00
2022-11-07T07:30:40.833Z,11.90
2022-11-07T07:33:08.137Z,12.00
2022-11-07T07:35:35.621Z,12.00
2022-11-07T07:38:03.056Z,12.00
2022-11-07T07:40:30.462Z,12.10
2022-11-07T07:42:58.224Z,12.00
2022-11-07T07:45:26.045Z,12.10
2022-11-07T07:47:53.327Z,12.10
2022-11-07T07:50:21.637Z,12.20
2022-11-07T07:52:48.962Z,12.20
2022-11-07T07:55:16.382Z,12.20
2022-11-07T07:57:45.477Z,12.30
2022-11-07T08:00:13.502Z,12.30
2022-11-07T08:02:43.956Z,12.40
2022-11-07T08:05:13.958Z,12.40
2022-11-07T08:07:49.322Z,12.40
2022-11-07T08:10:40.900Z,12.50
2022-11-07T08:13:05.350Z,12.50
2022-11-07T08:15:33.229Z,12.50
2022-11-07T08:18:04.722Z,12.50
2022-11-07T08:20:32.600Z,12.60
2022-11-07T08:23:14.597Z,12.60
2022-11-07T08:25:52.116Z,12.60
2022-11-07T08:28:21.325Z,13.20
2022-11-07T08:31:10.144Z,12.60
2022-11-07T08:33:38.079Z,12.70
2022-11-07T08:36:07.180Z,12.70
2022-11-07T08:38:36.232Z,12.80
2022-11-07T08:41:06.468Z,12.80
2022-11-07T08:43:33.818Z,12.80
2022-11-07T08:46:01.223Z,12.90
2022-11-07T08:48:28.513Z,12.90
2022-11-07T08:50:57.684Z,12.90
2022-11-07T08:53:27.234Z,12.90
2022-11-07T08:56:01.898Z,12.90
2022-11-07T08:58:30.354Z,13.00
2022-11-07T09:00:58.317Z,13.00
2022-11-07T09:06:15.071Z,13.00
2022-11-07T09:08:42.430Z,13.00
2022-11-07T09:11:10.016Z,13.10
2022-11-07T09:13:37.675Z,13.10
2022-11-07T09:16:07.830Z,13.20
2022-11-07T09:18:35.152Z,13.50
2022-11-07T09:21:02.870Z,13.30
2022-11-07T09:23:30.979Z,13.30
2022-11-07T09:26:01.540Z,13.30
2022-11-07T09:28:29.953Z,13.40
2022-11-07T09:30:59.002Z,13.40
2022-11-07T09:33:26.948Z,13.40
2022-11-07T09:35:58.792Z,13.50
2022-11-07T09:38:26.404Z,13.50
2022-11-07T09:41:05.845Z,13.50
2022-11-07T09:44:11.418Z,13.60
2022-11-07T09:46:50.852Z,13.60
2022-11-07T09:49:40.996Z,13.60
2022-11-07T09:52:17.949Z,14.10
2022-11-07T09:54:51.669Z,13.60
2022-11-07T09:57:20.122Z,13.60
2022-11-07T09:59:56.045Z,13.70
2022-11-07T10:02:32.278Z,13.70
2022-11-07T10:05:03.263Z,13.70
2022-11-07T10:08:04.323Z,13.80
2022-11-07T10:10:52.559Z,13.80
2022-11-07T10:13:22.904Z,13.80
2022-11-07T10:16:09.033Z,13.80
2022-11-07T10:18:57.822Z,13.80
2022-11-07T10:21:49.609Z,13.80
2022-11-07T10:24:38.712Z,13.80
2022-11-07T10:27:10.649Z,13.80
2022-11-07T10:29:44.798Z,13.80
2022-11-07T10:32:22.287Z,13.80
2022-11-07T10:34:57.048Z,13.80
2022-11-07T10:37:24.946Z,13.80
2022-11-07T10:39:52.560Z,13.80
2022-11-07T10:42:31.334Z,13.70
2022-11-07T10:44:59.825Z,13.70
2022-11-07T10:47:30.284Z,13.80
2022-11-07T10:50:00.359Z,13.30
2022-11-07T10:52:29.308Z,13.80
2022-11-07T10:55:08.567Z,13.80
2022-11-07T10:57:36.443Z,13.90
2022-11-07T11:00:08.017Z,13.90
2022-11-07T11:02:48.154Z,13.90
2022-11-07T11:05:42.186Z,13.90
2022-11-07T11:08:22.111Z,14.00
2022-11-07T11:10:51.202Z,14.00
2022-11-07T11:13:36.040Z,14.00
2022-11-07T11:16:31.304Z,14.00
2022-11-07T11:19:01.297Z,14.10
2022-11-07T11:21:43.614Z,14.20
2022-11-07T11:24:30.664Z,14.10
2022-11-07T11:27:03.681Z,14.00
2022-11-07T11:29:49.822Z,14.00
2022-11-07T11:32:35.448Z,14.10
2022-11-07T11:35:23.102Z,14.10
2022-11-07T11:38:04.832Z,14.10
2022-11-07T11:40:37.936Z,14.10
2022-11-07T11:43:30.080Z,14.10
2022-11-07T11:46:19.446Z,14.20
2022-11-07T11:49:05.671Z,14.20
2022-11-07T11:51:54.362Z,14.20
2022-11-07T11:54:22.252Z,14.20
2022-11-07T11:57:27.683Z,14.20
2022-11-07T12:00:23.265Z,14.20
2022-11-07T12:03:30.818Z,14.30
2022-11-07T12:06:11.751Z,14.40
2022-11-07T12:09:00.265Z,14.40
2022-11-07T12:11:32.876Z,14.40
2022-11-07T12:14:29.027Z,14.40
2022-11-07T12:17:05.043Z,14.40
2022-11-07T12:20:08.251Z,14.50
2022-11-07T12:23:12.370Z,14.60
2022-11-07T12:26:14.950Z,14.60
2022-11-07T12:29:14.012Z,14.60
2022-11-07T12:32:11.688Z,14.60
2022-11-07T12:34:53.828Z,14.60
2022-11-07T12:37:48.432Z,14.60
2022-11-07T12:40:36.784Z,14.60
2022-11-07T12:43:03.979Z,14.60
2022-11-07T12:45:58.981Z,14.50
2022-11-07T12:48:32.259Z,14.80
2022-11-07T12:51:27.995Z,14.50
2022-11-07T12:54:40.145Z,14.50
2022-11-07T12:57:18.903Z,14.50
2022-11-07T13:00:02.630Z,14.50
2022-11-07T13:02:45.330Z,14.50
2022-11-07T13:05:37.892Z,14.40
2022-11-07T13:08:16.133Z,14.50
2022-11-07T13:10:49.354Z,14.40
2022-11-07T13:13:43.617Z,14.40
2022-11-07T13:16:28.621Z,14.40
2022-11-07T13:19:07.922Z,14.40
2022-11-07T13:21:43.293Z,14.50
2022-11-07T13:24:22.282Z,14.50
2022-11-07T13:26:49.567Z,14.50
2022-11-07T13:29:38.091Z,14.50
2022-11-07T13:32:13.603Z,14.50
2022-11-07T13:34:59.362Z,14.50
2022-11-07T13:37:31.164Z,14.60
2022-11-07T13:40:15.073Z,14.90
2022-11-07T13:42:43.730Z,14.70
2022-11-07T13:45:41.015Z,14.70
2022-11-07T13:48:19.789Z,14.60
2022-11-07T13:51:00.239Z,14.70
2022-11-07T13:53:34.277Z,14.70
2022-11-07T13:56:14.562Z,14.70
2022-11-07T13:58:43.902Z,14.70
2022-11-07T14:01:13.338Z,14.80
2022-11-07T14:03:40.714Z,14.70
2022-11-07T14:06:12.289Z,14.70
2022-11-07T14:08:41.639Z,14.70
2022-11-07T14:11:21.052Z,14.70
2022-11-07T14:13:52.202Z,14.70
2022-11-07T14:16:25.690Z,14.70
2022-11-07T14:19:12.934Z,14.70
2022-11-07T14:21:43.713Z,14.60
2022-11-07T14:24:33.931Z,14.50
2022-11-07T14:27:08.841Z,14.60
2022-11-07T14:29:37.572Z,14.60
2022-11-07T14:32:07.968Z,14.50
2022-11-07T14:34:36.471Z,14.60
2022-11-07T14:37:07.782Z,14.60
2022-11-07T14:39:35.061Z,14.60
2022-11-07T14:42:03.487Z,14.50
2022-11-07T14:44:58.521Z,14.60
2022-11-07T14:47:29.195Z,14.50
2022-11-07T14:49:57.138Z,14.50
2022-11-07T14:52:29.384Z,14.50
2022-11-07T14:55:04.361Z,14.50
2022-11-07T14:57:35.716Z,14.50
2022-11-07T15:00:17.920Z,14.40
2022-11-07T15:02:48.167Z,14.40
2022-11-07T15:05:30.737Z,14.40
2022-11-07T15:07:59.493Z,14.40
2022-11-07T15:10:37.007Z,14.40
2022-11-07T15:13:18.535Z,14.40
2022-11-07T15:15:47.510Z,14.70
2022-11-07T15:18:26.804Z,14.40
2022-11-07T15:20:59.758Z,14.40
2022-11-07T15:23:28.644Z,14.30
2022-11-07T15:26:00.861Z,14.30
2022-11-07T15:28:43.515Z,14.30
2022-11-07T15:31:30.543Z,14.30
2022-11-07T15:34:00.454Z,14.30
2022-11-07T15:36:27.812Z,14.30
2022-11-07T15:38:56.320Z,14.30
2022-11-07T15:41:23.710Z,14.30
2022-11-07T15:43:51.020Z,14.30
2022-11-07T15:46:27.544Z,14.40
2022-11-07T15:48:55.007Z,14.30
2022-11-07T15:51:22.738Z,14.30
2022-11-07T15:53:50.188Z,14.30
2022-11-07T15:56:20.263Z,14.20
2022-11-07T15:58:48.102Z,14.20
2022-11-07T16:01:15.497Z,14.20
2022-11-07T16:03:43.074Z,14.20
2022-11-07T16:06:33.374Z,14.20
2022-11-07T16:09:00.754Z,14.20
2022-11-07T16:11:28.043Z,14.20
2022-11-07T16:14:14.741Z,14.20
2022-11-07T16:16:44.435Z,14.00
2022-11-07T16:19:17.533Z,14.20
2022-11-07T16:21:44.830Z,14.20
2022-11-07T16:24:12.267Z,14.20
2022-11-07T16:26:40.257Z,14.10
2022-11-07T16:29:11.263Z,14.00
2022-11-07T16:31:38.586Z,14.10
2022-11-07T16:34:06.169Z,14.00
2022-11-07T16:36:35.545Z,14.00
2022-11-07T16:39:05.642Z,14.00
2022-11-07T16:41:33.376Z,13.90
2022-11-07T16:44:01.142Z,13.90
2022-11-07T16:46:34.188Z,13.90
2022-11-07T16:49:12.958Z,13.90
2022-11-07T16:51:43.980Z,13.90
2022-11-07T16:54:11.994Z,13.80
2022-11-07T16:56:40.724Z,13.90
2022-11-07T16:59:08.374Z,13.80
2022-11-07T17:01:36.536Z,13.80
2022-11-07T17:04:03.998Z,13.80
2022-11-07T17:06:34.012Z,12.80
2022-11-07T17:09:12.153Z,13.70
2022-11-07T17:11:40.788Z,13.70
2022-11-07T17:14:08.188Z,13.60
2022-11-07T17:16:37.012Z,13.60
2022-11-07T17:19:06.008Z,13.60
2022-11-07T17:21:49.437Z,13.60
2022-11-07T17:24:16.881Z,13.60
2022-11-07T17:26:44.174Z,13.60
2022-11-07T17:29:13.705Z,13.60
2022-11-07T17:31:42.090Z,13.60
2022-11-07T17:34:09.650Z,13.60
2022-11-07T17:36:46.223Z,13.60
2022-11-07T17:39:16.694Z,13.60
2022-11-07T17:41:45.053Z,13.60
2022-11-07T17:44:12.809Z,13.60
2022-11-07T17:46:45.520Z,13.50
2022-11-07T17:49:18.654Z,13.60
2022-11-07T17:51:46.107Z,12.50
2022-11-07T17:54:14.875Z,13.60
2022-11-07T17:56:42.952Z,13.50
2022-11-07T17:59:16.267Z,13.60
2022-11-07T18:01:44.293Z,13.60
2022-11-07T18:04:13.851Z,13.60
2022-11-07T18:06:43.235Z,13.60
2022-11-07T18:09:16.490Z,13.60
2022-11-07T18:11:44.813Z,13.60
2022-11-07T18:14:13.563Z,13.60
2022-11-07T18:16:40.892Z,13.60
2022-11-07T18:19:09.386Z,13.60
2022-11-07T18:21:36.680Z,13.70
2022-11-07T18:24:04.090Z,13.70
2022-11-07T18:26:31.997Z,13.70
2022-11-07T18:29:05.181Z,13.70
2022-11-07T18:31:32.828Z,13.70
2022-11-07T18:34:02.076Z,13.70
2022-11-07T18:36:31.451Z,13.70
2022-11-07T18:39:04.196Z,13.70
2022-11-07T18:41:31.578Z,13.70
2022-11-07T18:44:04.221Z,13.70
2022-11-07T18:46:32.818Z,13.70
2022-11-07T18:49:00.512Z,14.30
2022-11-07T18:51:27.837Z,13.80
2022-11-07T18:53:55.636Z,13.80
2022-11-07T18:56:22.949Z,14.40
2022-11-07T18:58:50.505Z,13.80
2022-11-07T19:01:20.660Z,13.80
2022-11-07T19:03:48.752Z,13.90
2022-11-07T19:06:20.048Z,14.00
2022-11-07T19:08:48.656Z,13.90
2022-11-07T19:11:19.635Z,13.90
2022-11-07T19:13:47.724Z,13.80
2022-11-07T19:16:17.326Z,13.90
2022-11-07T19:18:49.495Z,13.90
2022-11-07T19:21:21.866Z,14.00
2022-11-07T19:23:50.514Z,13.90
2022-11-07T19:26:19.334Z,14.00
2022-11-07T19:28:47.355Z,13.30
2022-11-07T19:31:15.107Z,14.00
2022-11-07T19:33:43.586Z,14.00
2022-11-07T19:36:19.870Z,14.10
2022-11-07T19:38:48.086Z,14.30
2022-11-07T19:41:17.696Z,14.10
2022-11-07T19:43:48.499Z,14.00
2022-11-07T19:46:20.055Z,14.00
2022-11-07T19:48:49.013Z,14.10
2022-11-07T19:51:22.001Z,14.10
2022-11-07T19:53:58.993Z,14.10
2022-11-07T19:56:29.282Z,14.10
2022-11-07T19:58:57.392Z,14.10
2022-11-07T20:01:27.886Z,14.10
2022-11-07T20:03:56.070Z,14.10
2022-11-07T20:06:38.166Z,14.10
2022-11-07T20:09:07.813Z,14.00
2022-11-07T20:11:35.206Z,14.10
2022-11-07T20:14:03.903Z,14.10
2022-11-07T20:16:32.990Z,14.10
2022-11-07T20:19:01.062Z,14.00
2022-11-07T20:21:29.157Z,14.10
2022-11-07T20:23:59.555Z,13.70
2022-11-07T20:26:29.464Z,14.10
2022-11-07T20:28:56.902Z,14.10
2022-11-07T20:31:26.969Z,14.20
2022-11-07T20:33:56.993Z,14.20
2022-11-07T20:36:24.563Z,14.20
2022-11-07T20:38:54.892Z,14.20
2022-11-07T20:41:23.716Z,14.20
2022-11-07T20:43:55.921Z,14.20
2022-11-07T20:46:23.767Z,13.50
2022-11-07T20:48:51.231Z,14.20
2022-11-07T20:51:20.643Z,14.20
2022-11-07T20:53:50.391Z,14.30
2022-11-07T20:56:20.491Z,14.30
2022-11-07T20:58:48.826Z,14.30
2022-11-07T21:01:19.406Z,14.30
2022-11-07T21:03:48.475Z,14.30
2022-11-07T21:06:16.393Z,14.40
2022-11-07T21:08:46.502Z,14.30
2022-11-07T21:11:14.957Z,14.40
2022-11-07T21:13:51.134Z,14.30
2022-11-07T21:16:21.848Z,14.30
2022-11-07T21:18:50.175Z,14.30
2022-11-07T21:21:21.690Z,14.50
2022-11-07T21:23:50.637Z,14.30
2022-11-07T21:26:21.961Z,14.30
2022-11-07T21:28:49.339Z,14.30
2022-11-07T21:31:23.746Z,14.30
2022-11-07T21:33:51.848Z,14.30
2022-11-07T21:36:23.077Z,14.30
2022-11-07T21:38:51.010Z,14.30
2022-11-07T21:41:18.659Z,14.30
2022-11-07T21:43:46.816Z,14.30
2022-11-07T21:46:21.483Z,14.70
2022-11-07T21:48:50.561Z,14.30
2022-11-07T21:51:21.088Z,14.20
2022-11-07T21:53:49.129Z,14.20
2022-11-07T21:56:24.985Z,14.30
2022-11-07T21:59:08.474Z,14.30
2022-11-07T22:01:37.378Z,14.30
2022-11-07T22:04:09.405Z,14.30
2022-11-07T22:06:39.707Z,14.30
2022-11-07T22:09:08.807Z,14.30
2022-11-07T22:11:37.319Z,14.20
2022-11-07T22:14:05.176Z,14.30
2022-11-07T22:16:33.174Z,14.30
2022-11-07T22:19:00.900Z,14.30
2022-11-07T22:21:28.238Z,14.30
2022-11-07T22:23:58.204Z,14.30
2022-11-07T22:26:27.324Z,14.30
2022-11-07T22:28:55.210Z,14.30
2022-11-07T22:31:25.370Z,14.30
2022-11-07T22:33:54.364Z,14.30
2022-11-07T22:36:22.627Z,14.30
2022-11-07T22:38:50.758Z,14.30
2022-11-07T22:41:23.526Z,14.30
2022-11-07T22:43:51.621Z,14.20
2022-11-07T22:46:23.799Z,14.20
2022-11-07T22:48:52.586Z,14.30
2022-11-07T22:51:28.528Z,14.20
2022-11-07T22:54:06.833Z,14.40
2022-11-07T22:56:36.166Z,14.20
2022-11-07T22:59:05.659Z,14.30
2022-11-07T23:01:35.564Z,14.30
2022-11-07T23:04:03.724Z,14.30
2022-11-07T23:06:31.033Z,14.20
2022-11-07T23:08:59.243Z,14.20
2022-11-07T23:11:45.776Z,14.20
2022-11-07T23:14:15.778Z,14.20
2022-11-07T23:16:45.924Z,14.20
2022-11-07T23:19:15.618Z,14.10
2022-11-07T23:21:43.474Z,14.10
2022-11-07T23:24:11.089Z,14.10
2022-11-07T23:26:38.910Z,14.00
2022-11-07T23:29:18.962Z,14.00
2022-11-07T23:31:48.260Z,14.00
2022-11-07T23:34:15.917Z,14.00
2022-11-07T23:36:44.803Z,14.00
2022-11-07T23:39:18.206Z,14.00
2022-11-07T23:41:46.453Z,14.10
2022-11-07T23:44:14.708Z,14.10
2022-11-07T23:47:01.641Z,14.10
2022-11-07T23:49:47.509Z,14.10
2022-11-07T23:52:14.967Z,14.10
2022-11-07T23:55:01.231Z,14.10
2022-11-07T23:57:28.497Z,13.80
